San Jose, San José de Chiquitos Airport (SLJE)

NameSan José de Chiquitos Airport
CitySan Jose
CountryBolivia
ICAOSLJE
IATASJS
Altitude284 m
CoordinatesGoogle Map
Live Air TrafficLiveATC.net
METARSLJE 242200Z 36008KT 9999 NSC 31/18 Q1010
2019-06-24 22:00:00 Wind: North (360°) 4.12 m/s - Visibility: > 10000 m - Temperature: 31 °C - Dew point: 18 °C - Humidity: 45.8% - Pressure: 1010 hPa
Statistics

The table below shows the detailed information of all flights to/from San Jose, San José de Chiquitos Airport (SLJE).